createdAt,value
2023-03-06T00:02:11.401Z,8.00
2023-03-06T00:07:13.007Z,7.40
2023-03-06T00:12:14.642Z,8.77
2023-03-06T00:17:16.275Z,7.93
2023-03-06T00:22:17.904Z,7.80
2023-03-06T00:27:20.119Z,8.07
2023-03-06T00:32:22.236Z,8.07
2023-03-06T00:37:25.677Z,7.97
2023-03-06T00:42:27.431Z,8.13
2023-03-06T00:47:29.017Z,7.97
2023-03-06T00:52:30.660Z,9.60
2023-03-06T00:57:32.267Z,8.43
2023-03-06T01:02:34.140Z,8.50
2023-03-06T01:07:36.998Z,8.87
2023-03-06T01:12:38.656Z,9.67
2023-03-06T01:17:40.254Z,9.23
2023-03-06T01:22:42.077Z,10.20
2023-03-06T01:27:43.788Z,9.93
2023-03-06T01:32:45.681Z,10.47
2023-03-06T01:37:47.612Z,9.50
2023-03-06T01:42:52.484Z,9.47
2023-03-06T01:47:54.223Z,9.67
2023-03-06T01:52:59.707Z,8.57
2023-03-06T01:58:08.983Z,9.53
2023-03-06T02:03:21.569Z,9.47
2023-03-06T02:08:24.031Z,9.90
2023-03-06T02:13:25.715Z,8.83
2023-03-06T02:18:28.518Z,9.43
2023-03-06T02:23:55.135Z,10.93
2023-03-06T02:28:59.212Z,9.97
2023-03-06T02:34:13.858Z,9.40
2023-03-06T02:39:18.144Z,8.93
2023-03-06T02:44:21.326Z,10.07
2023-03-06T02:49:24.397Z,9.53
2023-03-06T02:54:27.825Z,10.27
2023-03-06T02:59:29.527Z,10.37
2023-03-06T03:04:32.644Z,10.60
2023-03-06T03:09:36.982Z,10.20
2023-03-06T03:14:39.098Z,11.20
2023-03-06T03:19:40.854Z,10.53
2023-03-06T03:24:42.652Z,10.03
2023-03-06T03:29:45.112Z,10.53
2023-03-06T03:34:47.010Z,10.20
2023-03-06T03:39:48.721Z,10.13
2023-03-06T03:44:50.616Z,10.97
2023-03-06T03:49:55.293Z,10.60
2023-03-06T03:54:57.871Z,10.43
2023-03-06T04:00:00.395Z,10.90
2023-03-06T04:05:16.184Z,10.70
2023-03-06T04:10:18.030Z,11.53
2023-03-06T04:15:19.828Z,11.97
2023-03-06T04:20:22.506Z,12.00
2023-03-06T04:25:24.775Z,11.83
2023-03-06T04:30:26.682Z,12.07
2023-03-06T04:35:28.719Z,12.33
2023-03-06T04:40:38.013Z,11.87
2023-03-06T04:45:39.795Z,12.07
2023-03-06T04:50:41.819Z,13.03
2023-03-06T04:55:43.424Z,11.67
2023-03-06T05:00:45.057Z,12.13
2023-03-06T05:05:46.783Z,11.90
2023-03-06T05:10:55.638Z,12.00
2023-03-06T05:16:02.767Z,12.73
2023-03-06T05:21:05.889Z,13.10
2023-03-06T05:26:13.103Z,12.27
2023-03-06T05:31:14.718Z,13.43
2023-03-06T05:36:16.350Z,13.20
2023-03-06T05:41:18.005Z,13.47
2023-03-06T05:46:19.620Z,13.23
2023-03-06T05:51:21.401Z,13.93
2023-03-06T05:56:23.075Z,15.00
2023-03-06T06:01:25.422Z,15.43
2023-03-06T06:06:27.297Z,14.30
2023-03-06T06:11:29.099Z,15.07
2023-03-06T06:16:31.137Z,14.10
2023-03-06T06:21:32.971Z,14.70
2023-03-06T06:26:34.785Z,14.43
2023-03-06T06:31:37.389Z,14.63
2023-03-06T06:36:39.576Z,13.90
2023-03-06T06:41:59.368Z,14.93
2023-03-06T06:47:24.091Z,14.97
2023-03-06T06:52:26.552Z,15.63
2023-03-06T06:57:28.415Z,14.90
2023-03-06T07:02:30.352Z,16.07
2023-03-06T07:07:36.646Z,16.00
2023-03-06T07:12:38.684Z,16.07
2023-03-06T07:17:40.561Z,17.25
2023-03-06T07:22:50.809Z,16.05
2023-03-06T07:27:54.915Z,16.53
2023-03-06T07:32:58.038Z,15.38
2023-03-06T07:38:00.017Z,17.55
2023-03-06T07:43:18.449Z,16.83
2023-03-06T07:48:25.110Z,16.00
2023-03-06T07:53:27.393Z,15.07
2023-03-06T07:58:29.243Z,15.18
2023-03-06T08:03:31.294Z,16.50
2023-03-06T08:08:35.563Z,15.20
2023-03-06T08:13:38.349Z,13.88
2023-03-06T08:18:40.302Z,15.00
2023-03-06T08:23:42.769Z,15.50
2023-03-06T08:28:44.850Z,14.85
2023-03-06T08:33:47.156Z,14.52
2023-03-06T08:38:48.992Z,15.20
2023-03-06T08:43:51.516Z,14.75
2023-03-06T08:48:53.571Z,12.60
2023-03-06T08:53:56.680Z,14.13
2023-03-06T08:59:00.597Z,14.30
2023-03-06T09:04:06.491Z,12.38
2023-03-06T09:09:08.952Z,14.10
2023-03-06T09:14:10.762Z,13.57
2023-03-06T09:19:12.574Z,14.50
2023-03-06T09:24:16.465Z,12.93
2023-03-06T09:29:18.388Z,12.43
2023-03-06T09:34:20.470Z,13.80
2023-03-06T09:39:22.358Z,13.25
2023-03-06T09:44:30.464Z,13.27
2023-03-06T09:50:05.084Z,13.02
2023-03-06T09:55:24.162Z,13.95
2023-03-06T10:00:35.796Z,14.50
2023-03-06T10:05:58.441Z,16.60
2023-03-06T10:11:03.764Z,14.02
2023-03-06T10:16:14.572Z,14.82
2023-03-06T10:21:29.841Z,12.90
2023-03-06T10:26:40.079Z,14.18
2023-03-06T10:31:53.764Z,14.20
2023-03-06T10:36:58.748Z,14.25
2023-03-06T10:42:00.570Z,15.35
2023-03-06T10:47:30.109Z,14.13
2023-03-06T10:52:35.602Z,15.20
2023-03-06T10:57:37.388Z,15.43
2023-03-06T11:02:41.204Z,17.00
2023-03-06T11:07:55.380Z,17.00
2023-03-06T11:13:00.277Z,17.27
2023-03-06T11:18:08.147Z,15.25
2023-03-06T11:23:18.004Z,16.00
2023-03-06T11:28:38.325Z,15.70
2023-03-06T11:33:47.583Z,15.18
2023-03-06T11:38:52.033Z,14.77
2023-03-06T11:44:00.751Z,15.73
2023-03-06T11:49:27.664Z,15.90
2023-03-06T11:54:29.536Z,16.92
2023-03-06T11:59:43.403Z,14.63
2023-03-06T12:05:01.210Z,13.98
2023-03-06T12:10:29.961Z,13.50
2023-03-06T12:15:56.732Z,13.00
2023-03-06T12:21:10.785Z,12.30
2023-03-06T12:26:54.840Z,11.95
2023-03-06T12:32:27.403Z,11.70
2023-03-06T12:38:10.937Z,11.40
2023-03-06T12:43:46.730Z,10.57
2023-03-06T12:49:31.410Z,10.32
2023-03-06T12:54:41.167Z,11.02
2023-03-06T12:59:48.039Z,10.52
2023-03-06T13:05:20.760Z,11.18
2023-03-06T13:10:27.065Z,9.98
2023-03-06T13:15:39.290Z,11.85
2023-03-06T13:20:45.070Z,11.60
2023-03-06T13:25:48.930Z,12.00
2023-03-06T13:30:52.678Z,11.40
2023-03-06T13:35:56.809Z,11.10
2023-03-06T13:41:25.736Z,11.13
2023-03-06T13:46:37.149Z,10.98
2023-03-06T13:52:25.606Z,11.77
2023-03-06T13:57:43.654Z,11.23
2023-03-06T14:02:51.793Z,14.20
2023-03-06T14:08:11.142Z,12.90
2023-03-06T14:13:17.888Z,12.63
2023-03-06T14:18:26.895Z,10.95
2023-03-06T14:23:42.682Z,11.25
2023-03-06T14:28:53.609Z,9.68
2023-03-06T14:33:56.618Z,10.05
2023-03-06T14:39:07.877Z,10.25
2023-03-06T14:44:21.550Z,11.35
2023-03-06T14:49:26.989Z,9.27
2023-03-06T14:54:31.754Z,10.02
2023-03-06T14:59:41.757Z,11.25
2023-03-06T15:04:47.644Z,10.32
2023-03-06T15:09:51.930Z,10.18
2023-03-06T15:15:10.498Z,9.93
2023-03-06T15:20:42.384Z,10.35
2023-03-06T15:26:03.639Z,10.55
2023-03-06T15:31:21.100Z,9.85
2023-03-06T15:36:29.728Z,12.10
2023-03-06T15:41:37.330Z,11.82
2023-03-06T15:46:39.268Z,12.23
2023-03-06T15:51:41.129Z,6.68
2023-03-06T15:56:46.222Z,7.60
2023-03-06T16:01:48.929Z,7.53
2023-03-06T16:06:50.710Z,7.88
2023-03-06T16:11:52.565Z,8.87
2023-03-06T16:16:55.096Z,8.80
2023-03-06T16:21:57.194Z,9.63
2023-03-06T16:27:01.532Z,11.40
2023-03-06T16:32:04.527Z,11.53
2023-03-06T16:37:09.227Z,12.97
2023-03-06T16:42:11.486Z,14.70
2023-03-06T16:47:13.301Z,13.07
2023-03-06T16:52:15.259Z,13.48
2023-03-06T16:57:17.568Z,15.53
2023-03-06T17:02:19.381Z,15.07
2023-03-06T17:07:21.154Z,17.10
2023-03-06T17:12:23.080Z,15.05
2023-03-06T17:17:24.911Z,15.63
2023-03-06T17:22:27.445Z,17.75
2023-03-06T17:27:29.270Z,18.70
2023-03-06T17:32:32.384Z,18.40
2023-03-06T17:37:34.427Z,19.67
2023-03-06T17:42:36.299Z,20.27
2023-03-06T17:47:38.270Z,20.17
2023-03-06T17:52:40.086Z,23.17
2023-03-06T17:57:41.931Z,21.10
2023-03-06T18:02:45.395Z,21.30
2023-03-06T18:07:47.449Z,23.00
2023-03-06T18:12:49.391Z,19.85
2023-03-06T18:17:51.624Z,20.40
2023-03-06T18:22:53.512Z,21.05
2023-03-06T18:27:55.334Z,19.83
2023-03-06T18:32:57.231Z,22.52
2023-03-06T18:37:59.101Z,22.73
2023-03-06T18:43:00.950Z,20.73
2023-03-06T18:48:04.971Z,20.57
2023-03-06T18:53:06.798Z,20.40
2023-03-06T18:58:08.623Z,19.90
2023-03-06T19:03:11.421Z,21.27
2023-03-06T19:08:14.490Z,19.60
2023-03-06T19:13:16.327Z,20.90
2023-03-06T19:18:18.314Z,19.17
2023-03-06T19:23:21.452Z,18.93
2023-03-06T19:28:23.446Z,17.80
2023-03-06T19:33:25.374Z,18.07
2023-03-06T19:38:27.222Z,18.37
2023-03-06T19:43:30.006Z,18.20
2023-03-06T19:48:31.841Z,17.30
2023-03-06T19:53:35.412Z,18.43
2023-03-06T19:58:38.378Z,17.97
2023-03-06T20:03:41.030Z,19.27
2023-03-06T20:08:43.426Z,18.97
2023-03-06T20:13:47.464Z,17.87
2023-03-06T20:18:49.679Z,18.00
2023-03-06T20:23:53.397Z,19.83
2023-03-06T20:28:55.469Z,18.13
2023-03-06T20:33:59.194Z,18.80
2023-03-06T20:39:03.826Z,19.27
2023-03-06T20:44:08.035Z,18.55
2023-03-06T20:49:11.443Z,20.93
2023-03-06T20:54:15.449Z,22.47
2023-03-06T20:59:18.529Z,22.03
2023-03-06T21:04:20.442Z,20.87
2023-03-06T21:09:22.317Z,19.83
2023-03-06T21:14:24.098Z,21.85
2023-03-06T21:19:27.407Z,23.85
2023-03-06T21:24:29.261Z,24.45
2023-03-06T21:29:31.391Z,22.17
2023-03-06T21:34:33.336Z,22.63
2023-03-06T21:39:35.142Z,19.37
2023-03-06T21:44:36.946Z,19.98
2023-03-06T21:49:38.779Z,18.40
2023-03-06T21:54:41.422Z,18.37
2023-03-06T21:59:43.247Z,19.45
2023-03-06T22:04:50.065Z,18.52
2023-03-06T22:09:53.320Z,19.10
2023-03-06T22:14:55.138Z,17.40
2023-03-06T22:19:57.051Z,18.77
2023-03-06T22:24:58.887Z,18.17
2023-03-06T22:30:00.719Z,17.20
2023-03-06T22:35:02.683Z,20.05
2023-03-06T22:40:04.885Z,19.13
2023-03-06T22:45:07.278Z,18.92
2023-03-06T22:50:10.159Z,18.77
2023-03-06T22:55:12.004Z,18.98
2023-03-06T23:00:14.726Z,19.40
2023-03-06T23:05:16.615Z,19.40
2023-03-06T23:10:19.896Z,17.23
2023-03-06T23:15:40.208Z,19.33
2023-03-06T23:21:00.584Z,17.83
2023-03-06T23:26:24.157Z,18.67
2023-03-06T23:31:29.260Z,17.23
2023-03-06T23:36:31.280Z,19.80
2023-03-06T23:41:33.137Z,18.50
2023-03-06T23:46:35.149Z,20.97
2023-03-06T23:51:37.308Z,21.20
2023-03-06T23:56:39.641Z,21.53
